Terminal Aerodrome Forecast
Issued by NWS Green Bay, WI

Home | Current Version | Previous Version | Text Only | Print | Product List | Glossary Off
Versions: 1 2 3 4 5 6 7 8 9 10 11 12 13 14 15 16 17 18 19 20 21 22 23 24 25 26 27 28 29 30 31 32 33 34 35 36

000
FTUS43 KGRB 251735
TAFGRB
TAF
KGRB 251735Z 2518/2618 29008KT P6SM OVC024
     FM252100 32007KT P6SM OVC028
     FM260000 34005KT P6SM BKN025
     FM261600 33006KT P6SM SCT030=

USA.gov is the U.S. government's official web portal to all federal, state and local government web resources and services.